sensor_id;sensor_type;location;lat;lon;timestamp;P1;durP1;ratioP1;P2;durP2;ratioP2
24555;SDS011;12725;49.440;10.954;2023-06-05T00:00:27;1.77;;;1.07;;
24555;SDS011;12725;49.440;10.954;2023-06-05T00:04:28;1.75;;;1.30;;
24555;SDS011;12725;49.440;10.954;2023-06-05T00:08:28;2.28;;;1.60;;
24555;SDS011;12725;49.440;10.954;2023-06-05T00:12:29;0.97;;;0.83;;
24555;SDS011;12725;49.440;10.954;2023-06-05T00:16:29;3.73;;;1.00;;
24555;SDS011;12725;49.440;10.954;2023-06-05T00:20:29;1.00;;;0.90;;
24555;SDS011;12725;49.440;10.954;2023-06-05T00:24:30;2.70;;;1.20;;
24555;SDS011;12725;49.440;10.954;2023-06-05T00:28:30;0.67;;;0.67;;
24555;SDS011;12725;49.440;10.954;2023-06-05T00:32:31;1.85;;;0.90;;
24555;SDS011;12725;49.440;10.954;2023-06-05T00:36:31;1.48;;;1.02;;
24555;SDS011;12725;49.440;10.954;2023-06-05T00:40:32;2.42;;;1.10;;
24555;SDS011;12725;49.440;10.954;2023-06-05T00:44:33;1.60;;;1.05;;
24555;SDS011;12725;49.440;10.954;2023-06-05T00:48:33;1.47;;;0.97;;
24555;SDS011;12725;49.440;10.954;2023-06-05T00:52:34;2.35;;;1.10;;
24555;SDS011;12725;49.440;10.954;2023-06-05T00:56:35;3.58;;;1.35;;
24555;SDS011;12725;49.440;10.954;2023-06-05T01:00:35;2.78;;;1.25;;
24555;SDS011;12725;49.440;10.954;2023-06-05T01:04:36;2.97;;;1.05;;
24555;SDS011;12725;49.440;10.954;2023-06-05T01:08:36;0.82;;;0.80;;
24555;SDS011;12725;49.440;10.954;2023-06-05T01:12:50;0.93;;;0.90;;
24555;SDS011;12725;49.440;10.954;2023-06-05T01:16:59;2.45;;;1.23;;
24555;SDS011;12725;49.440;10.954;2023-06-05T01:21:03;1.30;;;0.95;;
24555;SDS011;12725;49.440;10.954;2023-06-05T01:25:07;1.43;;;1.10;;
24555;SDS011;12725;49.440;10.954;2023-06-05T01:29:08;6.38;;;1.58;;
24555;SDS011;12725;49.440;10.954;2023-06-05T01:33:12;1.40;;;1.10;;
24555;SDS011;12725;49.440;10.954;2023-06-05T01:37:14;1.42;;;1.20;;
24555;SDS011;12725;49.440;10.954;2023-06-05T01:41:18;0.98;;;0.90;;
24555;SDS011;12725;49.440;10.954;2023-06-05T01:45:20;3.03;;;1.02;;
24555;SDS011;12725;49.440;10.954;2023-06-05T01:49:21;1.25;;;1.05;;
24555;SDS011;12725;49.440;10.954;2023-06-05T01:53:21;1.38;;;1.15;;
24555;SDS011;12725;49.440;10.954;2023-06-05T01:57:22;3.33;;;1.30;;
24555;SDS011;12725;49.440;10.954;2023-06-05T02:01:22;1.33;;;0.93;;
24555;SDS011;12725;49.440;10.954;2023-06-05T02:05:23;2.17;;;1.30;;
24555;SDS011;12725;49.440;10.954;2023-06-05T02:09:24;6.45;;;1.17;;
24555;SDS011;12725;49.440;10.954;2023-06-05T02:13:24;1.67;;;1.20;;
24555;SDS011;12725;49.440;10.954;2023-06-05T02:17:25;4.68;;;1.30;;
24555;SDS011;12725;49.440;10.954;2023-06-05T02:21:25;2.83;;;1.60;;
24555;SDS011;12725;49.440;10.954;2023-06-05T02:25:26;1.83;;;1.40;;
24555;SDS011;12725;49.440;10.954;2023-06-05T02:29:27;1.13;;;1.08;;
24555;SDS011;12725;49.440;10.954;2023-06-05T02:33:27;2.05;;;1.42;;
24555;SDS011;12725;49.440;10.954;2023-06-05T02:37:28;2.08;;;1.50;;
24555;SDS011;12725;49.440;10.954;2023-06-05T02:41:28;1.40;;;0.95;;
24555;SDS011;12725;49.440;10.954;2023-06-05T02:45:29;1.27;;;1.08;;
24555;SDS011;12725;49.440;10.954;2023-06-05T02:49:29;1.38;;;1.20;;
24555;SDS011;12725;49.440;10.954;2023-06-05T02:53:29;1.52;;;0.90;;
24555;SDS011;12725;49.440;10.954;2023-06-05T02:57:30;1.10;;;1.00;;
24555;SDS011;12725;49.440;10.954;2023-06-05T03:01:31;1.60;;;1.10;;
24555;SDS011;12725;49.440;10.954;2023-06-05T03:05:34;3.35;;;1.40;;
24555;SDS011;12725;49.440;10.954;2023-06-05T03:09:35;1.33;;;1.23;;
24555;SDS011;12725;49.440;10.954;2023-06-05T03:13:36;2.25;;;1.30;;
24555;SDS011;12725;49.440;10.954;2023-06-05T03:17:37;2.07;;;1.53;;
24555;SDS011;12725;49.440;10.954;2023-06-05T03:21:37;2.30;;;1.38;;
24555;SDS011;12725;49.440;10.954;2023-06-05T03:25:39;1.77;;;1.20;;
24555;SDS011;12725;49.440;10.954;2023-06-05T03:29:39;1.75;;;1.40;;
24555;SDS011;12725;49.440;10.954;2023-06-05T03:33:40;2.28;;;1.40;;
24555;SDS011;12725;49.440;10.954;2023-06-05T03:37:40;1.10;;;0.93;;
24555;SDS011;12725;49.440;10.954;2023-06-05T03:41:40;1.60;;;1.40;;
24555;SDS011;12725;49.440;10.954;2023-06-05T03:45:41;1.33;;;1.10;;
24555;SDS011;12725;49.440;10.954;2023-06-05T03:49:41;2.25;;;1.55;;
24555;SDS011;12725;49.440;10.954;2023-06-05T03:53:46;1.52;;;1.20;;
24555;SDS011;12725;49.440;10.954;2023-06-05T03:57:55;1.58;;;1.35;;
24555;SDS011;12725;49.440;10.954;2023-06-05T04:01:56;1.83;;;1.42;;
24555;SDS011;12725;49.440;10.954;2023-06-05T04:05:57;1.63;;;1.25;;
24555;SDS011;12725;49.440;10.954;2023-06-05T04:09:57;5.03;;;1.60;;
24555;SDS011;12725;49.440;10.954;2023-06-05T04:13:57;2.45;;;1.13;;
24555;SDS011;12725;49.440;10.954;2023-06-05T04:17:58;11.02;;;1.60;;
24555;SDS011;12725;49.440;10.954;2023-06-05T04:21:58;2.33;;;1.70;;
24555;SDS011;12725;49.440;10.954;2023-06-05T04:26:00;2.50;;;1.88;;
24555;SDS011;12725;49.440;10.954;2023-06-05T04:30:00;3.47;;;1.77;;
24555;SDS011;12725;49.440;10.954;2023-06-05T04:34:01;2.85;;;1.23;;
24555;SDS011;12725;49.440;10.954;2023-06-05T04:38:05;1.35;;;1.25;;
24555;SDS011;12725;49.440;10.954;2023-06-05T04:42:05;3.73;;;1.70;;
24555;SDS011;12725;49.440;10.954;2023-06-05T04:46:07;2.22;;;1.23;;
24555;SDS011;12725;49.440;10.954;2023-06-05T04:50:07;1.50;;;1.33;;
24555;SDS011;12725;49.440;10.954;2023-06-05T04:54:08;1.88;;;1.52;;
24555;SDS011;12725;49.440;10.954;2023-06-05T04:58:09;1.80;;;1.55;;
24555;SDS011;12725;49.440;10.954;2023-06-05T05:02:09;1.77;;;1.60;;
24555;SDS011;12725;49.440;10.954;2023-06-05T05:06:10;5.57;;;1.58;;
24555;SDS011;12725;49.440;10.954;2023-06-05T05:10:10;3.10;;;1.90;;
24555;SDS011;12725;49.440;10.954;2023-06-05T05:14:11;2.22;;;1.63;;
24555;SDS011;12725;49.440;10.954;2023-06-05T05:18:11;1.43;;;1.33;;
24555;SDS011;12725;49.440;10.954;2023-06-05T05:22:12;1.80;;;1.57;;
24555;SDS011;12725;49.440;10.954;2023-06-05T05:26:12;10.87;;;1.80;;
24555;SDS011;12725;49.440;10.954;2023-06-05T05:30:12;5.50;;;1.97;;
24555;SDS011;12725;49.440;10.954;2023-06-05T05:34:13;5.45;;;1.45;;
24555;SDS011;12725;49.440;10.954;2023-06-05T05:38:14;5.40;;;1.15;;
24555;SDS011;12725;49.440;10.954;2023-06-05T05:42:14;1.17;;;0.98;;
24555;SDS011;12725;49.440;10.954;2023-06-05T05:46:16;1.63;;;0.70;;
24555;SDS011;12725;49.440;10.954;2023-06-05T05:50:17;1.20;;;1.10;;
24555;SDS011;12725;49.440;10.954;2023-06-05T05:54:17;1.20;;;0.90;;
24555;SDS011;12725;49.440;10.954;2023-06-05T05:58:17;1.77;;;0.98;;
24555;SDS011;12725;49.440;10.954;2023-06-05T06:02:18;1.35;;;1.20;;
24555;SDS011;12725;49.440;10.954;2023-06-05T06:06:18;3.10;;;1.10;;
24555;SDS011;12725;49.440;10.954;2023-06-05T06:10:19;0.77;;;0.70;;
24555;SDS011;12725;49.440;10.954;2023-06-05T06:14:20;1.10;;;1.00;;
24555;SDS011;12725;49.440;10.954;2023-06-05T06:18:20;1.37;;;1.07;;
24555;SDS011;12725;49.440;10.954;2023-06-05T06:22:20;1.30;;;1.20;;
24555;SDS011;12725;49.440;10.954;2023-06-05T06:26:21;1.20;;;1.10;;
24555;SDS011;12725;49.440;10.954;2023-06-05T06:30:21;1.85;;;1.33;;
24555;SDS011;12725;49.440;10.954;2023-06-05T06:34:22;1.60;;;1.00;;
24555;SDS011;12725;49.440;10.954;2023-06-05T06:38:22;6.77;;;1.20;;
24555;SDS011;12725;49.440;10.954;2023-06-05T06:42:24;2.53;;;1.30;;
24555;SDS011;12725;49.440;10.954;2023-06-05T06:46:24;1.30;;;1.15;;
24555;SDS011;12725;49.440;10.954;2023-06-05T06:50:24;1.77;;;1.10;;
24555;SDS011;12725;49.440;10.954;2023-06-05T06:54:25;1.77;;;1.10;;
24555;SDS011;12725;49.440;10.954;2023-06-05T06:58:28;2.08;;;1.35;;
24555;SDS011;12725;49.440;10.954;2023-06-05T07:02:28;3.08;;;1.35;;
24555;SDS011;12725;49.440;10.954;2023-06-05T07:06:29;0.95;;;0.90;;
24555;SDS011;12725;49.440;10.954;2023-06-05T07:10:30;2.05;;;1.10;;
24555;SDS011;12725;49.440;10.954;2023-06-05T07:14:30;2.40;;;1.10;;
24555;SDS011;12725;49.440;10.954;2023-06-05T07:18:32;4.68;;;2.22;;
24555;SDS011;12725;49.440;10.954;2023-06-05T07:22:33;1.25;;;0.93;;
24555;SDS011;12725;49.440;10.954;2023-06-05T07:26:33;1.80;;;1.37;;
24555;SDS011;12725;49.440;10.954;2023-06-05T07:30:34;1.48;;;1.20;;
24555;SDS011;12725;49.440;10.954;2023-06-05T07:34:34;2.67;;;1.52;;
24555;SDS011;12725;49.440;10.954;2023-06-05T07:38:35;1.40;;;1.30;;
24555;SDS011;12725;49.440;10.954;2023-06-05T07:42:35;2.45;;;1.48;;
24555;SDS011;12725;49.440;10.954;2023-06-05T07:46:36;5.70;;;1.93;;
24555;SDS011;12725;49.440;10.954;2023-06-05T07:50:37;2.03;;;1.30;;
24555;SDS011;12725;49.440;10.954;2023-06-05T07:54:37;2.20;;;1.37;;
24555;SDS011;12725;49.440;10.954;2023-06-05T07:58:38;2.08;;;1.20;;
24555;SDS011;12725;49.440;10.954;2023-06-05T08:02:39;2.08;;;1.48;;
24555;SDS011;12725;49.440;10.954;2023-06-05T08:06:40;3.90;;;1.67;;
24555;SDS011;12725;49.440;10.954;2023-06-05T08:10:41;2.33;;;1.65;;
24555;SDS011;12725;49.440;10.954;2023-06-05T08:14:42;4.60;;;1.57;;
24555;SDS011;12725;49.440;10.954;2023-06-05T08:18:42;2.83;;;1.67;;
24555;SDS011;12725;49.440;10.954;2023-06-05T08:22:42;2.10;;;1.63;;
24555;SDS011;12725;49.440;10.954;2023-06-05T08:26:43;2.53;;;1.80;;
24555;SDS011;12725;49.440;10.954;2023-06-05T08:30:43;2.20;;;1.80;;
24555;SDS011;12725;49.440;10.954;2023-06-05T08:34:46;1.85;;;1.48;;
24555;SDS011;12725;49.440;10.954;2023-06-05T08:38:47;1.75;;;1.50;;
24555;SDS011;12725;49.440;10.954;2023-06-05T08:42:47;1.30;;;1.20;;
24555;SDS011;12725;49.440;10.954;2023-06-05T08:46:48;2.13;;;1.57;;
24555;SDS011;12725;49.440;10.954;2023-06-05T08:50:48;2.78;;;1.90;;
24555;SDS011;12725;49.440;10.954;2023-06-05T08:54:49;1.63;;;1.38;;
24555;SDS011;12725;49.440;10.954;2023-06-05T08:58:50;3.28;;;1.88;;
24555;SDS011;12725;49.440;10.954;2023-06-05T09:02:50;2.58;;;1.95;;
24555;SDS011;12725;49.440;10.954;2023-06-05T09:06:51;2.40;;;1.75;;
24555;SDS011;12725;49.440;10.954;2023-06-05T09:10:54;2.35;;;1.63;;
24555;SDS011;12725;49.440;10.954;2023-06-05T09:14:54;2.50;;;1.77;;
24555;SDS011;12725;49.440;10.954;2023-06-05T09:18:55;2.28;;;1.85;;
24555;SDS011;12725;49.440;10.954;2023-06-05T09:22:56;4.00;;;2.00;;
24555;SDS011;12725;49.440;10.954;2023-06-05T09:35:02;6.15;;;1.75;;
24555;SDS011;12725;49.440;10.954;2023-06-05T09:39:15;2.28;;;1.55;;
24555;SDS011;12725;49.440;10.954;2023-06-05T09:43:22;1.95;;;1.55;;
24555;SDS011;12725;49.440;10.954;2023-06-05T09:51:25;1.53;;;1.43;;
24555;SDS011;12725;49.440;10.954;2023-06-05T09:55:26;2.45;;;1.83;;
24555;SDS011;12725;49.440;10.954;2023-06-05T09:59:29;3.40;;;2.10;;
24555;SDS011;12725;49.440;10.954;2023-06-05T10:03:31;6.47;;;2.28;;
24555;SDS011;12725;49.440;10.954;2023-06-05T10:07:31;2.45;;;1.80;;
24555;SDS011;12725;49.440;10.954;2023-06-05T10:11:33;3.35;;;2.38;;
24555;SDS011;12725;49.440;10.954;2023-06-05T10:15:33;2.70;;;2.00;;
24555;SDS011;12725;49.440;10.954;2023-06-05T10:19:34;3.22;;;2.05;;
24555;SDS011;12725;49.440;10.954;2023-06-05T10:23:35;2.92;;;2.08;;
24555;SDS011;12725;49.440;10.954;2023-06-05T10:31:52;5.78;;;2.28;;
24555;SDS011;12725;49.440;10.954;2023-06-05T10:36:21;2.17;;;1.63;;
24555;SDS011;12725;49.440;10.954;2023-06-05T10:40:40;8.32;;;1.77;;
24555;SDS011;12725;49.440;10.954;2023-06-05T10:44:43;2.13;;;1.77;;
24555;SDS011;12725;49.440;10.954;2023-06-05T11:06:11;2.20;;;2.00;;
24555;SDS011;12725;49.440;10.954;2023-06-05T11:14:18;2.28;;;1.48;;
24555;SDS011;12725;49.440;10.954;2023-06-05T11:18:31;3.97;;;1.45;;
24555;SDS011;12725;49.440;10.954;2023-06-05T11:22:33;1.95;;;1.73;;
24555;SDS011;12725;49.440;10.954;2023-06-05T11:26:40;2.53;;;2.20;;
24555;SDS011;12725;49.440;10.954;2023-06-05T11:30:42;2.63;;;2.03;;
24555;SDS011;12725;49.440;10.954;2023-06-05T11:34:47;3.95;;;1.60;;
24555;SDS011;12725;49.440;10.954;2023-06-05T11:38:54;2.78;;;1.63;;
24555;SDS011;12725;49.440;10.954;2023-06-05T11:43:04;2.47;;;1.50;;
24555;SDS011;12725;49.440;10.954;2023-06-05T11:47:06;2.08;;;1.88;;
24555;SDS011;12725;49.440;10.954;2023-06-05T11:51:06;3.67;;;1.98;;
24555;SDS011;12725;49.440;10.954;2023-06-05T11:55:17;2.23;;;1.43;;
24555;SDS011;12725;49.440;10.954;2023-06-05T11:59:22;2.08;;;1.30;;
24555;SDS011;12725;49.440;10.954;2023-06-05T12:03:24;2.25;;;1.70;;
24555;SDS011;12725;49.440;10.954;2023-06-05T12:07:28;1.50;;;1.40;;
24555;SDS011;12725;49.440;10.954;2023-06-05T12:11:29;3.10;;;1.42;;
24555;SDS011;12725;49.440;10.954;2023-06-05T12:15:29;1.45;;;1.30;;
24555;SDS011;12725;49.440;10.954;2023-06-05T12:19:31;4.47;;;1.52;;
24555;SDS011;12725;49.440;10.954;2023-06-05T12:23:32;2.10;;;1.53;;
24555;SDS011;12725;49.440;10.954;2023-06-05T12:27:33;2.03;;;1.40;;
24555;SDS011;12725;49.440;10.954;2023-06-05T12:35:35;1.98;;;1.42;;
24555;SDS011;12725;49.440;10.954;2023-06-05T12:39:36;1.65;;;1.52;;
24555;SDS011;12725;49.440;10.954;2023-06-05T12:43:37;1.17;;;1.07;;
24555;SDS011;12725;49.440;10.954;2023-06-05T12:47:37;1.65;;;1.50;;
24555;SDS011;12725;49.440;10.954;2023-06-05T12:51:38;6.50;;;1.52;;
24555;SDS011;12725;49.440;10.954;2023-06-05T12:55:38;1.10;;;1.00;;
24555;SDS011;12725;49.440;10.954;2023-06-05T12:59:38;0.97;;;0.87;;
24555;SDS011;12725;49.440;10.954;2023-06-05T13:03:39;1.67;;;1.33;;
24555;SDS011;12725;49.440;10.954;2023-06-05T13:07:39;5.83;;;1.37;;
24555;SDS011;12725;49.440;10.954;2023-06-05T13:11:39;1.00;;;0.90;;
24555;SDS011;12725;49.440;10.954;2023-06-05T13:15:40;1.65;;;0.85;;
24555;SDS011;12725;49.440;10.954;2023-06-05T13:19:42;1.35;;;1.13;;
24555;SDS011;12725;49.440;10.954;2023-06-05T13:23:42;1.10;;;1.00;;
24555;SDS011;12725;49.440;10.954;2023-06-05T13:27:42;1.53;;;1.20;;
24555;SDS011;12725;49.440;10.954;2023-06-05T13:31:43;1.52;;;1.08;;
24555;SDS011;12725;49.440;10.954;2023-06-05T13:35:43;1.33;;;0.83;;
24555;SDS011;12725;49.440;10.954;2023-06-05T13:39:43;1.38;;;1.08;;
24555;SDS011;12725;49.440;10.954;2023-06-05T13:43:44;2.65;;;0.98;;
24555;SDS011;12725;49.440;10.954;2023-06-05T13:47:45;1.08;;;0.98;;
24555;SDS011;12725;49.440;10.954;2023-06-05T13:51:46;0.77;;;0.77;;
24555;SDS011;12725;49.440;10.954;2023-06-05T13:55:46;2.17;;;1.10;;
24555;SDS011;12725;49.440;10.954;2023-06-05T13:59:46;1.53;;;1.30;;
24555;SDS011;12725;49.440;10.954;2023-06-05T14:03:47;1.65;;;1.08;;
24555;SDS011;12725;49.440;10.954;2023-06-05T14:07:48;0.82;;;0.80;;
24555;SDS011;12725;49.440;10.954;2023-06-05T14:11:49;1.02;;;0.93;;
24555;SDS011;12725;49.440;10.954;2023-06-05T14:15:49;1.47;;;0.90;;
24555;SDS011;12725;49.440;10.954;2023-06-05T14:19:50;0.80;;;0.80;;
24555;SDS011;12725;49.440;10.954;2023-06-05T14:23:50;2.50;;;1.00;;
24555;SDS011;12725;49.440;10.954;2023-06-05T14:27:54;1.43;;;1.17;;
24555;SDS011;12725;49.440;10.954;2023-06-05T14:31:55;1.20;;;1.10;;
24555;SDS011;12725;49.440;10.954;2023-06-05T14:35:56;1.10;;;1.00;;
24555;SDS011;12725;49.440;10.954;2023-06-05T14:39:58;2.28;;;1.00;;
24555;SDS011;12725;49.440;10.954;2023-06-05T14:43:59;2.42;;;1.10;;
24555;SDS011;12725;49.440;10.954;2023-06-05T14:47:59;1.40;;;1.30;;
24555;SDS011;12725;49.440;10.954;2023-06-05T14:52:00;2.22;;;1.35;;
24555;SDS011;12725;49.440;10.954;2023-06-05T14:56:00;1.08;;;0.93;;
24555;SDS011;12725;49.440;10.954;2023-06-05T15:00:02;1.88;;;1.60;;
24555;SDS011;12725;49.440;10.954;2023-06-05T15:04:04;1.38;;;1.10;;
24555;SDS011;12725;49.440;10.954;2023-06-05T15:08:05;1.83;;;1.05;;
24555;SDS011;12725;49.440;10.954;2023-06-05T15:12:06;1.23;;;1.10;;
24555;SDS011;12725;49.440;10.954;2023-06-05T15:16:08;2.17;;;1.58;;
24555;SDS011;12725;49.440;10.954;2023-06-05T15:20:09;2.72;;;1.55;;
24555;SDS011;12725;49.440;10.954;2023-06-05T15:24:09;3.25;;;1.92;;
24555;SDS011;12725;49.440;10.954;2023-06-05T15:28:10;1.63;;;1.27;;
24555;SDS011;12725;49.440;10.954;2023-06-05T15:32:11;1.55;;;1.17;;
24555;SDS011;12725;49.440;10.954;2023-06-05T15:36:11;1.30;;;1.20;;
24555;SDS011;12725;49.440;10.954;2023-06-05T15:40:12;2.70;;;1.37;;
24555;SDS011;12725;49.440;10.954;2023-06-05T15:44:14;3.07;;;1.70;;
24555;SDS011;12725;49.440;10.954;2023-06-05T15:48:14;1.48;;;1.20;;
24555;SDS011;12725;49.440;10.954;2023-06-05T15:52:15;1.38;;;1.27;;
24555;SDS011;12725;49.440;10.954;2023-06-05T15:56:15;4.53;;;1.60;;
24555;SDS011;12725;49.440;10.954;2023-06-05T16:00:16;2.10;;;1.63;;
24555;SDS011;12725;49.440;10.954;2023-06-05T16:04:18;3.20;;;1.70;;
24555;SDS011;12725;49.440;10.954;2023-06-05T16:08:18;2.27;;;1.87;;
24555;SDS011;12725;49.440;10.954;2023-06-05T16:12:19;2.15;;;1.67;;
24555;SDS011;12725;49.440;10.954;2023-06-05T16:16:19;3.00;;;2.13;;
24555;SDS011;12725;49.440;10.954;2023-06-05T16:20:20;1.70;;;1.60;;
24555;SDS011;12725;49.440;10.954;2023-06-05T16:24:20;3.55;;;2.13;;
24555;SDS011;12725;49.440;10.954;2023-06-05T16:28:21;5.72;;;2.38;;
24555;SDS011;12725;49.440;10.954;2023-06-05T16:32:21;2.30;;;1.90;;
24555;SDS011;12725;49.440;10.954;2023-06-05T16:36:22;1.67;;;1.35;;
24555;SDS011;12725;49.440;10.954;2023-06-05T16:40:23;3.87;;;2.13;;
24555;SDS011;12725;49.440;10.954;2023-06-05T16:44:23;1.52;;;1.40;;
24555;SDS011;12725;49.440;10.954;2023-06-05T16:48:24;2.45;;;2.15;;
24555;SDS011;12725;49.440;10.954;2023-06-05T16:52:24;2.08;;;1.88;;
24555;SDS011;12725;49.440;10.954;2023-06-05T16:56:25;2.13;;;1.65;;
24555;SDS011;12725;49.440;10.954;2023-06-05T17:00:25;2.15;;;1.67;;
24555;SDS011;12725;49.440;10.954;2023-06-05T17:04:26;3.23;;;1.80;;
24555;SDS011;12725;49.440;10.954;2023-06-05T17:08:26;3.85;;;1.67;;
24555;SDS011;12725;49.440;10.954;2023-06-05T17:12:27;3.23;;;1.50;;
24555;SDS011;12725;49.440;10.954;2023-06-05T17:16:27;2.17;;;1.52;;
24555;SDS011;12725;49.440;10.954;2023-06-05T17:20:28;1.98;;;1.40;;
24555;SDS011;12725;49.440;10.954;2023-06-05T17:24:28;2.40;;;1.70;;
24555;SDS011;12725;49.440;10.954;2023-06-05T17:28:29;1.50;;;1.40;;
24555;SDS011;12725;49.440;10.954;2023-06-05T17:32:29;1.45;;;1.33;;
24555;SDS011;12725;49.440;10.954;2023-06-05T17:36:30;1.73;;;1.48;;
24555;SDS011;12725;49.440;10.954;2023-06-05T17:40:30;2.60;;;1.93;;
24555;SDS011;12725;49.440;10.954;2023-06-05T17:44:31;1.42;;;1.27;;
24555;SDS011;12725;49.440;10.954;2023-06-05T17:48:31;3.75;;;1.70;;
24555;SDS011;12725;49.440;10.954;2023-06-05T17:52:32;8.65;;;2.08;;
24555;SDS011;12725;49.440;10.954;2023-06-05T17:56:33;1.58;;;1.40;;
24555;SDS011;12725;49.440;10.954;2023-06-05T18:00:36;1.73;;;1.58;;
24555;SDS011;12725;49.440;10.954;2023-06-05T18:04:37;1.92;;;1.30;;
24555;SDS011;12725;49.440;10.954;2023-06-05T18:08:37;1.30;;;1.20;;
24555;SDS011;12725;49.440;10.954;2023-06-05T18:12:38;2.33;;;1.92;;
24555;SDS011;12725;49.440;10.954;2023-06-05T18:16:39;1.98;;;1.30;;
24555;SDS011;12725;49.440;10.954;2023-06-05T18:20:41;1.30;;;1.20;;
24555;SDS011;12725;49.440;10.954;2023-06-05T18:24:41;2.15;;;1.52;;
24555;SDS011;12725;49.440;10.954;2023-06-05T18:28:41;2.03;;;1.63;;
24555;SDS011;12725;49.440;10.954;2023-06-05T18:32:42;2.50;;;1.50;;
24555;SDS011;12725;49.440;10.954;2023-06-05T18:36:42;2.00;;;1.35;;
24555;SDS011;12725;49.440;10.954;2023-06-05T18:40:43;3.85;;;1.42;;
24555;SDS011;12725;49.440;10.954;2023-06-05T18:44:43;2.13;;;1.53;;
24555;SDS011;12725;49.440;10.954;2023-06-05T18:48:43;2.13;;;1.60;;
24555;SDS011;12725;49.440;10.954;2023-06-05T18:52:44;1.20;;;1.10;;
24555;SDS011;12725;49.440;10.954;2023-06-05T18:56:45;2.10;;;1.90;;
24555;SDS011;12725;49.440;10.954;2023-06-05T19:00:45;1.45;;;1.27;;
24555;SDS011;12725;49.440;10.954;2023-06-05T19:04:45;1.15;;;1.05;;
24555;SDS011;12725;49.440;10.954;2023-06-05T19:08:46;2.37;;;1.50;;
24555;SDS011;12725;49.440;10.954;2023-06-05T19:12:47;1.92;;;1.45;;
24555;SDS011;12725;49.440;10.954;2023-06-05T19:16:47;1.77;;;1.53;;
24555;SDS011;12725;49.440;10.954;2023-06-05T19:20:47;2.53;;;1.52;;
24555;SDS011;12725;49.440;10.954;2023-06-05T19:24:48;2.60;;;2.07;;
24555;SDS011;12725;49.440;10.954;2023-06-05T19:28:48;3.43;;;1.60;;
24555;SDS011;12725;49.440;10.954;2023-06-05T19:32:49;1.63;;;1.40;;
24555;SDS011;12725;49.440;10.954;2023-06-05T19:36:49;2.05;;;1.58;;
24555;SDS011;12725;49.440;10.954;2023-06-05T19:40:49;1.40;;;1.20;;
24555;SDS011;12725;49.440;10.954;2023-06-05T19:44:50;2.28;;;1.52;;
24555;SDS011;12725;49.440;10.954;2023-06-05T19:48:52;2.92;;;1.80;;
24555;SDS011;12725;49.440;10.954;2023-06-05T19:52:53;1.42;;;1.23;;
24555;SDS011;12725;49.440;10.954;2023-06-05T19:56:54;3.10;;;2.22;;
24555;SDS011;12725;49.440;10.954;2023-06-05T20:00:54;1.90;;;1.70;;
24555;SDS011;12725;49.440;10.954;2023-06-05T20:04:55;2.45;;;1.80;;
24555;SDS011;12725;49.440;10.954;2023-06-05T20:08:55;3.00;;;1.90;;
24555;SDS011;12725;49.440;10.954;2023-06-05T20:12:56;2.08;;;1.73;;
24555;SDS011;12725;49.440;10.954;2023-06-05T20:16:57;1.75;;;1.50;;
24555;SDS011;12725;49.440;10.954;2023-06-05T20:20:57;2.87;;;1.90;;
24555;SDS011;12725;49.440;10.954;2023-06-05T20:24:58;2.10;;;1.73;;
24555;SDS011;12725;49.440;10.954;2023-06-05T20:28:58;2.77;;;2.00;;
24555;SDS011;12725;49.440;10.954;2023-06-05T20:32:58;2.17;;;1.80;;
24555;SDS011;12725;49.440;10.954;2023-06-05T20:36:59;2.10;;;1.73;;
24555;SDS011;12725;49.440;10.954;2023-06-05T20:41:01;2.58;;;1.90;;
24555;SDS011;12725;49.440;10.954;2023-06-05T20:45:01;2.23;;;1.47;;
24555;SDS011;12725;49.440;10.954;2023-06-05T20:49:02;2.17;;;1.63;;
24555;SDS011;12725;49.440;10.954;2023-06-05T20:53:03;2.95;;;1.98;;
24555;SDS011;12725;49.440;10.954;2023-06-05T20:57:10;6.03;;;2.20;;
24555;SDS011;12725;49.440;10.954;2023-06-05T21:01:11;2.80;;;1.88;;
24555;SDS011;12725;49.440;10.954;2023-06-05T21:05:11;1.90;;;1.63;;
24555;SDS011;12725;49.440;10.954;2023-06-05T21:09:11;2.45;;;1.92;;
24555;SDS011;12725;49.440;10.954;2023-06-05T21:13:13;2.45;;;1.83;;
24555;SDS011;12725;49.440;10.954;2023-06-05T21:17:15;3.15;;;2.03;;
24555;SDS011;12725;49.440;10.954;2023-06-05T21:21:15;3.05;;;1.67;;
24555;SDS011;12725;49.440;10.954;2023-06-05T21:25:15;2.50;;;1.80;;
24555;SDS011;12725;49.440;10.954;2023-06-05T21:29:16;1.73;;;1.30;;
24555;SDS011;12725;49.440;10.954;2023-06-05T21:33:16;2.63;;;1.60;;
24555;SDS011;12725;49.440;10.954;2023-06-05T21:37:16;2.23;;;1.77;;
24555;SDS011;12725;49.440;10.954;2023-06-05T21:41:20;2.15;;;1.90;;
24555;SDS011;12725;49.440;10.954;2023-06-05T21:45:20;2.97;;;2.23;;
24555;SDS011;12725;49.440;10.954;2023-06-05T21:49:21;2.93;;;1.93;;
24555;SDS011;12725;49.440;10.954;2023-06-05T21:53:21;2.80;;;1.87;;
24555;SDS011;12725;49.440;10.954;2023-06-05T21:57:21;7.13;;;2.53;;
24555;SDS011;12725;49.440;10.954;2023-06-05T22:01:22;2.50;;;1.85;;
24555;SDS011;12725;49.440;10.954;2023-06-05T22:05:23;3.22;;;2.03;;
24555;SDS011;12725;49.440;10.954;2023-06-05T22:09:23;2.30;;;1.95;;
24555;SDS011;12725;49.440;10.954;2023-06-05T22:13:23;2.95;;;1.77;;
24555;SDS011;12725;49.440;10.954;2023-06-05T22:17:24;2.75;;;1.83;;
24555;SDS011;12725;49.440;10.954;2023-06-05T22:21:25;4.70;;;1.75;;
24555;SDS011;12725;49.440;10.954;2023-06-05T22:25:26;1.65;;;1.52;;
24555;SDS011;12725;49.440;10.954;2023-06-05T22:29:26;2.50;;;1.42;;
24555;SDS011;12725;49.440;10.954;2023-06-05T22:33:28;6.38;;;2.35;;
24555;SDS011;12725;49.440;10.954;2023-06-05T22:37:28;4.47;;;1.90;;
24555;SDS011;12725;49.440;10.954;2023-06-05T22:41:33;1.70;;;1.50;;
24555;SDS011;12725;49.440;10.954;2023-06-05T22:45:33;2.17;;;1.63;;
24555;SDS011;12725;49.440;10.954;2023-06-05T22:49:33;2.43;;;1.70;;
24555;SDS011;12725;49.440;10.954;2023-06-05T22:53:34;2.90;;;1.88;;
24555;SDS011;12725;49.440;10.954;2023-06-05T22:57:35;3.38;;;1.80;;
24555;SDS011;12725;49.440;10.954;2023-06-05T23:01:36;3.47;;;2.37;;
24555;SDS011;12725;49.440;10.954;2023-06-05T23:05:36;2.92;;;1.63;;
24555;SDS011;12725;49.440;10.954;2023-06-05T23:09:36;4.63;;;2.37;;
24555;SDS011;12725;49.440;10.954;2023-06-05T23:13:38;3.13;;;2.20;;
24555;SDS011;12725;49.440;10.954;2023-06-05T23:17:40;2.10;;;1.90;;
24555;SDS011;12725;49.440;10.954;2023-06-05T23:21:40;5.97;;;2.67;;
24555;SDS011;12725;49.440;10.954;2023-06-05T23:25:41;2.50;;;1.83;;
24555;SDS011;12725;49.440;10.954;2023-06-05T23:29:41;2.20;;;1.85;;
24555;SDS011;12725;49.440;10.954;2023-06-05T23:33:43;2.70;;;2.00;;
24555;SDS011;12725;49.440;10.954;2023-06-05T23:37:44;4.50;;;1.92;;
24555;SDS011;12725;49.440;10.954;2023-06-05T23:41:44;2.17;;;1.63;;
24555;SDS011;12725;49.440;10.954;2023-06-05T23:45:46;5.60;;;1.95;;
24555;SDS011;12725;49.440;10.954;2023-06-05T23:49:46;2.40;;;1.60;;
24555;SDS011;12725;49.440;10.954;2023-06-05T23:53:46;2.30;;;2.00;;
24555;SDS011;12725;49.440;10.954;2023-06-05T23:57:47;3.77;;;2.37;;
